createdAt,value
2023-02-16T00:00:50.994Z,85.00
2023-02-16T00:03:22.565Z,84.19
2023-02-16T00:05:50.678Z,85.35
2023-02-16T00:08:17.374Z,86.49
2023-02-16T00:11:08.896Z,84.29
2023-02-16T00:13:44.949Z,83.89
2023-02-16T00:16:24.372Z,84.63
2023-02-16T00:18:51.825Z,85.09
2023-02-16T00:21:18.992Z,84.40
2023-02-16T00:23:46.056Z,84.64
2023-02-16T00:26:19.240Z,85.26
2023-02-16T00:28:50.314Z,85.04
2023-02-16T00:31:22.675Z,85.41
2023-02-16T00:33:49.813Z,85.27
2023-02-16T00:36:20.249Z,84.94
2023-02-16T00:38:47.015Z,86.60
2023-02-16T00:41:50.318Z,86.89
2023-02-16T00:44:40.193Z,86.16
2023-02-16T00:47:24.024Z,86.10
2023-02-16T00:49:53.584Z,86.10
2023-02-16T00:52:39.815Z,86.17
2023-02-16T00:55:15.190Z,86.35
2023-02-16T00:57:59.064Z,85.63
2023-02-16T01:00:33.578Z,87.60
2023-02-16T01:03:05.059Z,88.13
2023-02-16T01:05:31.852Z,87.21
2023-02-16T01:08:18.824Z,86.40
2023-02-16T01:11:05.006Z,85.47
2023-02-16T01:13:36.547Z,87.23
2023-02-16T01:16:03.188Z,90.40
2023-02-16T01:18:30.382Z,87.26
2023-02-16T01:20:56.969Z,86.98
2023-02-16T01:23:23.635Z,86.86
2023-02-16T01:25:50.319Z,86.64
2023-02-16T01:28:25.546Z,86.55
2023-02-16T01:30:53.396Z,87.04
2023-02-16T01:33:20.721Z,87.66
2023-02-16T01:35:47.800Z,86.14
2023-02-16T01:38:19.016Z,87.44
2023-02-16T01:41:25.926Z,86.16
2023-02-16T01:43:58.945Z,87.65
2023-02-16T01:47:13.303Z,86.97
2023-02-16T01:49:39.931Z,87.40
2023-02-16T01:52:19.342Z,88.15
2023-02-16T01:54:51.093Z,86.35
2023-02-16T01:58:12.027Z,87.09
2023-02-16T02:00:49.224Z,88.44
2023-02-16T02:03:38.292Z,87.50
2023-02-16T02:06:09.265Z,87.41
2023-02-16T02:08:45.964Z,89.27
2023-02-16T02:11:17.000Z,88.70
2023-02-16T02:14:03.188Z,88.88
2023-02-16T02:16:29.844Z,89.34
2023-02-16T02:18:57.202Z,89.21
2023-02-16T02:22:26.238Z,89.44
2023-02-16T02:25:11.404Z,87.94
2023-02-16T02:27:43.162Z,87.25
2023-02-16T02:30:15.505Z,86.16
2023-02-16T02:32:55.427Z,87.03
2023-02-16T02:35:40.281Z,87.44
2023-02-16T02:38:22.732Z,88.45
2023-02-16T02:41:04.372Z,88.88
2023-02-16T02:43:37.041Z,88.62
2023-02-16T02:46:10.929Z,88.26
2023-02-16T02:48:37.680Z,88.42
2023-02-16T02:51:32.134Z,89.72
2023-02-16T02:54:38.607Z,88.99
2023-02-16T02:57:43.455Z,88.31
2023-02-16T03:00:36.656Z,89.41
2023-02-16T03:03:11.899Z,88.42
2023-02-16T03:05:44.088Z,87.97
2023-02-16T03:08:14.746Z,88.22
2023-02-16T03:11:12.169Z,88.99
2023-02-16T03:13:51.142Z,88.25
2023-02-16T03:16:27.925Z,88.09
2023-02-16T03:19:14.998Z,88.87
2023-02-16T03:22:00.305Z,89.16
2023-02-16T03:24:48.099Z,89.26
2023-02-16T03:27:40.016Z,88.71
2023-02-16T03:30:10.293Z,87.96
2023-02-16T03:32:37.980Z,88.16
2023-02-16T03:35:05.513Z,88.50
2023-02-16T03:37:32.688Z,89.67
2023-02-16T03:40:18.388Z,87.63
2023-02-16T03:42:50.030Z,86.25
2023-02-16T03:45:17.364Z,88.86
2023-02-16T03:47:43.942Z,88.82
2023-02-16T03:50:10.616Z,90.62
2023-02-16T03:52:37.249Z,89.81
2023-02-16T03:55:04.078Z,89.68
2023-02-16T03:57:30.826Z,89.87
2023-02-16T03:59:59.430Z,88.13
2023-02-16T04:02:28.483Z,90.08
2023-02-16T04:04:55.190Z,87.98
2023-02-16T04:07:21.870Z,87.66
2023-02-16T04:09:48.452Z,88.68
2023-02-16T04:12:33.767Z,88.71
2023-02-16T04:15:00.412Z,87.74
2023-02-16T04:17:27.045Z,88.56
2023-02-16T04:19:58.655Z,87.69
2023-02-16T04:22:25.359Z,86.45
2023-02-16T04:24:51.971Z,88.73
2023-02-16T04:27:18.702Z,88.27
2023-02-16T04:29:45.364Z,87.83
2023-02-16T04:32:12.361Z,87.22
2023-02-16T04:34:39.055Z,87.75
2023-02-16T04:37:05.931Z,88.81
2023-02-16T04:39:33.120Z,88.59
2023-02-16T04:41:59.728Z,88.54
2023-02-16T04:44:26.353Z,88.28
2023-02-16T04:46:52.957Z,88.41
2023-02-16T04:49:19.537Z,88.41
2023-02-16T04:51:46.122Z,88.96
2023-02-16T04:54:12.867Z,87.05
2023-02-16T04:56:39.498Z,88.11
2023-02-16T04:59:06.092Z,87.76
2023-02-16T05:01:32.705Z,90.56
2023-02-16T05:03:59.325Z,90.41
2023-02-16T05:06:26.000Z,88.19
2023-02-16T05:08:52.588Z,88.69
2023-02-16T05:11:37.888Z,90.40
2023-02-16T05:14:23.114Z,91.19
2023-02-16T05:16:49.726Z,89.51
2023-02-16T05:19:16.445Z,86.48
2023-02-16T05:21:43.060Z,89.48
2023-02-16T05:24:11.509Z,89.52
2023-02-16T05:26:41.818Z,87.93
2023-02-16T05:29:08.710Z,90.76
2023-02-16T05:31:35.448Z,90.41
2023-02-16T05:34:02.199Z,90.78
2023-02-16T05:36:28.898Z,91.33
2023-02-16T05:38:56.251Z,91.40
2023-02-16T05:41:25.430Z,90.91
2023-02-16T05:44:02.831Z,91.65
2023-02-16T05:46:32.659Z,90.55
2023-02-16T05:48:59.932Z,87.77
2023-02-16T05:51:27.024Z,88.39
2023-02-16T05:53:53.985Z,90.63
2023-02-16T05:56:21.055Z,92.99
2023-02-16T05:58:47.818Z,90.74
2023-02-16T06:01:15.024Z,91.92
2023-02-16T06:03:41.778Z,92.31
2023-02-16T06:06:09.125Z,94.41
2023-02-16T06:08:37.143Z,94.54
2023-02-16T06:11:07.151Z,91.40
2023-02-16T06:13:34.382Z,91.63
2023-02-16T06:16:00.995Z,91.66
2023-02-16T06:18:27.648Z,93.04
2023-02-16T06:20:56.940Z,93.99
2023-02-16T06:23:23.753Z,93.05
2023-02-16T06:25:53.349Z,91.31
2023-02-16T06:28:19.924Z,93.04
2023-02-16T06:30:46.482Z,90.04
2023-02-16T06:33:13.063Z,91.87
2023-02-16T06:35:39.620Z,91.20
2023-02-16T06:38:06.208Z,92.36
2023-02-16T06:40:32.782Z,92.29
2023-02-16T06:42:59.391Z,92.04
2023-02-16T06:45:25.985Z,89.79
2023-02-16T06:47:52.549Z,91.14
2023-02-16T06:50:19.255Z,92.33
2023-02-16T06:52:45.817Z,91.36
2023-02-16T06:55:12.780Z,91.10
2023-02-16T06:57:39.402Z,91.19
2023-02-16T07:00:07.621Z,91.64
2023-02-16T07:02:35.684Z,92.13
2023-02-16T07:05:03.278Z,92.03
2023-02-16T07:07:30.934Z,92.19
2023-02-16T07:09:58.107Z,91.39
2023-02-16T07:12:24.731Z,91.38
2023-02-16T07:14:51.301Z,90.88
2023-02-16T07:17:18.149Z,90.74
2023-02-16T07:19:44.792Z,90.29
2023-02-16T07:22:11.346Z,91.16
2023-02-16T07:24:37.943Z,89.85
2023-02-16T07:27:08.682Z,91.00
2023-02-16T07:29:35.576Z,90.53
2023-02-16T07:32:03.749Z,90.44
2023-02-16T07:34:30.747Z,90.37
2023-02-16T07:36:57.656Z,89.23
2023-02-16T07:39:24.484Z,88.24
2023-02-16T07:41:51.029Z,87.69
2023-02-16T07:44:18.138Z,87.24
2023-02-16T07:46:44.701Z,86.89
2023-02-16T07:49:11.275Z,85.60
2023-02-16T07:51:37.921Z,84.22
2023-02-16T07:54:04.510Z,83.39
2023-02-16T07:56:32.720Z,82.67
2023-02-16T07:59:01.041Z,82.43
2023-02-16T08:01:29.925Z,81.81
2023-02-16T08:03:56.902Z,81.36
2023-02-16T08:06:23.808Z,80.31
2023-02-16T08:08:50.746Z,79.59
2023-02-16T08:11:22.470Z,78.65
2023-02-16T08:13:49.416Z,77.78
2023-02-16T08:16:19.884Z,76.73
2023-02-16T08:18:46.533Z,76.13
2023-02-16T08:21:17.163Z,75.57
2023-02-16T08:23:47.594Z,74.92
2023-02-16T08:26:18.319Z,72.64
2023-02-16T08:28:46.827Z,71.89
2023-02-16T08:31:18.899Z,70.48
2023-02-16T08:33:46.865Z,68.98
2023-02-16T08:36:34.590Z,67.67
2023-02-16T08:39:04.161Z,67.94
2023-02-16T08:41:36.107Z,69.17
2023-02-16T08:44:04.316Z,69.39
2023-02-16T08:46:32.439Z,69.42
2023-02-16T08:49:00.855Z,69.73
2023-02-16T08:51:34.675Z,69.83
2023-02-16T08:54:05.614Z,69.22
2023-02-16T08:56:35.682Z,70.13
2023-02-16T08:59:02.686Z,69.27
2023-02-16T09:01:32.462Z,69.22
2023-02-16T09:03:59.141Z,69.03
2023-02-16T09:06:28.431Z,68.57
2023-02-16T09:08:56.954Z,68.68
2023-02-16T09:11:24.793Z,68.25
2023-02-16T09:13:51.750Z,67.82
2023-02-16T09:16:22.634Z,67.36
2023-02-16T09:18:50.897Z,67.86
2023-02-16T09:21:22.965Z,67.62
2023-02-16T09:23:50.470Z,68.08
2023-02-16T09:26:21.806Z,68.07
2023-02-16T09:28:49.310Z,68.11
2023-02-16T09:31:17.804Z,68.19
2023-02-16T09:33:45.444Z,68.55
2023-02-16T09:36:12.895Z,68.02
2023-02-16T09:38:40.975Z,68.63
2023-02-16T09:41:15.523Z,68.91
2023-02-16T09:43:52.285Z,68.77
2023-02-16T09:46:22.839Z,68.51
2023-02-16T09:48:51.105Z,68.39
2023-02-16T09:51:29.514Z,68.30
2023-02-16T09:54:10.957Z,68.68
2023-02-16T09:56:49.367Z,68.88
2023-02-16T09:59:25.744Z,68.90
2023-02-16T10:02:11.462Z,68.31
2023-02-16T10:05:14.409Z,66.96
2023-02-16T10:07:48.963Z,67.15
2023-02-16T10:10:20.911Z,66.84
2023-02-16T10:12:59.791Z,66.79
2023-02-16T10:15:30.332Z,65.63
2023-02-16T10:18:22.888Z,65.94
2023-02-16T10:20:53.954Z,66.21
2023-02-16T10:23:38.902Z,65.61
2023-02-16T10:26:41.895Z,65.43
2023-02-16T10:29:16.149Z,63.96
2023-02-16T10:31:52.008Z,64.02
2023-02-16T10:34:44.914Z,64.71
2023-02-16T10:37:29.133Z,65.08
2023-02-16T10:40:22.888Z,65.19
2023-02-16T10:43:07.336Z,64.24
2023-02-16T10:45:51.999Z,64.39
2023-02-16T10:48:21.157Z,64.60
2023-02-16T10:51:00.737Z,64.65
2023-02-16T10:53:42.498Z,65.13
2023-02-16T10:56:37.493Z,64.94
2023-02-16T10:59:11.584Z,64.10
2023-02-16T11:01:43.261Z,63.53
2023-02-16T11:04:30.274Z,63.73
2023-02-16T11:07:09.228Z,62.54
2023-02-16T11:09:36.965Z,63.00
2023-02-16T11:12:15.926Z,62.61
2023-02-16T11:14:50.383Z,62.46
2023-02-16T11:17:18.565Z,62.19
2023-02-16T11:19:52.878Z,61.90
2023-02-16T11:22:37.791Z,60.99
2023-02-16T11:25:22.649Z,62.38
2023-02-16T11:28:02.002Z,63.14
2023-02-16T11:30:40.090Z,64.46
2023-02-16T11:33:23.705Z,64.71
2023-02-16T11:35:50.404Z,63.93
2023-02-16T11:38:36.009Z,63.54
2023-02-16T11:41:06.457Z,63.19
2023-02-16T11:43:37.367Z,61.87
2023-02-16T11:46:18.594Z,61.20
2023-02-16T11:48:45.845Z,61.82
2023-02-16T11:51:19.400Z,62.60
2023-02-16T11:53:59.231Z,63.87
2023-02-16T11:56:29.852Z,64.23
2023-02-16T11:59:17.281Z,64.80
2023-02-16T12:01:50.236Z,64.91
2023-02-16T12:04:29.680Z,64.83
2023-02-16T12:07:23.009Z,65.46
2023-02-16T12:09:55.486Z,66.05
2023-02-16T12:12:33.138Z,66.28
2023-02-16T12:15:03.556Z,65.89
2023-02-16T12:17:36.387Z,66.11
2023-02-16T12:20:19.243Z,66.18
2023-02-16T12:22:56.685Z,66.06
2023-02-16T12:25:47.885Z,66.23
2023-02-16T12:28:26.271Z,65.90
2023-02-16T12:31:31.709Z,65.67
2023-02-16T12:34:23.717Z,65.41
2023-02-16T12:36:57.724Z,65.80
2023-02-16T12:39:30.655Z,65.85
2023-02-16T12:42:11.062Z,65.41
2023-02-16T12:44:52.525Z,65.74
2023-02-16T12:47:45.088Z,65.17
2023-02-16T12:50:27.055Z,65.15
2023-02-16T12:52:54.034Z,65.49
2023-02-16T12:55:49.113Z,65.92
2023-02-16T12:58:58.095Z,66.20
2023-02-16T13:01:31.176Z,66.68
2023-02-16T13:04:15.924Z,66.97
2023-02-16T13:07:16.462Z,66.88
2023-02-16T13:10:02.070Z,66.96
2023-02-16T13:13:15.300Z,67.00
2023-02-16T13:15:59.123Z,67.00
2023-02-16T13:18:36.019Z,67.18
2023-02-16T13:21:08.975Z,67.33
2023-02-16T13:23:59.679Z,67.12
2023-02-16T13:26:42.842Z,67.49
2023-02-16T13:29:31.470Z,67.34
2023-02-16T13:32:33.614Z,67.29
2023-02-16T13:35:17.144Z,67.81
2023-02-16T13:38:21.576Z,68.51
2023-02-16T13:41:09.934Z,68.21
2023-02-16T13:44:08.951Z,67.90
2023-02-16T13:46:44.574Z,68.25
2023-02-16T13:49:40.677Z,68.47
2023-02-16T13:52:10.302Z,68.66
2023-02-16T13:54:43.770Z,68.62
2023-02-16T13:57:34.538Z,68.99
2023-02-16T14:00:02.655Z,68.72
2023-02-16T14:02:54.547Z,69.31
2023-02-16T14:05:36.633Z,69.70
2023-02-16T14:08:22.807Z,69.88
2023-02-16T14:10:55.462Z,69.51
2023-02-16T14:13:28.208Z,69.94
2023-02-16T14:15:58.858Z,69.68
2023-02-16T14:18:28.521Z,70.23
2023-02-16T14:21:04.696Z,71.04
2023-02-16T14:23:37.094Z,70.99
2023-02-16T14:26:06.029Z,71.65
2023-02-16T14:28:33.006Z,70.76
2023-02-16T14:31:04.787Z,71.16
2023-02-16T14:33:46.842Z,72.11
2023-02-16T14:36:18.372Z,72.48
2023-02-16T14:38:50.439Z,72.37
2023-02-16T14:41:23.118Z,72.87
2023-02-16T14:44:19.157Z,72.96
2023-02-16T14:47:23.524Z,73.10
2023-02-16T14:50:09.230Z,73.65
2023-02-16T14:52:47.801Z,73.04
2023-02-16T14:55:43.498Z,73.10
2023-02-16T14:58:28.971Z,73.46
2023-02-16T15:01:08.682Z,73.92
2023-02-16T15:03:41.812Z,74.62
2023-02-16T15:06:20.133Z,74.77
2023-02-16T15:08:57.047Z,75.45
2023-02-16T15:11:30.504Z,75.82
2023-02-16T15:14:11.540Z,76.67
2023-02-16T15:16:40.955Z,75.81
2023-02-16T15:19:12.922Z,75.07
2023-02-16T15:21:39.861Z,75.12
2023-02-16T15:24:07.734Z,75.54
2023-02-16T15:26:35.850Z,75.01
2023-02-16T15:29:21.336Z,75.31
2023-02-16T15:31:48.916Z,75.13
2023-02-16T15:34:30.367Z,75.08
2023-02-16T15:36:57.311Z,75.43
2023-02-16T15:39:45.150Z,75.71
2023-02-16T15:42:28.210Z,75.67
2023-02-16T15:44:56.047Z,75.85
2023-02-16T15:47:25.379Z,76.38
2023-02-16T15:49:53.982Z,76.41
2023-02-16T15:52:33.811Z,76.41
2023-02-16T15:55:03.740Z,76.93
2023-02-16T15:57:38.479Z,77.00
2023-02-16T16:00:23.171Z,77.04
2023-02-16T16:02:53.036Z,77.26
2023-02-16T16:05:28.696Z,77.05
2023-02-16T16:07:56.883Z,77.19
2023-02-16T16:10:32.519Z,77.37
2023-02-16T16:13:11.558Z,77.15
2023-02-16T16:15:45.061Z,77.58
2023-02-16T16:18:39.253Z,77.66
2023-02-16T16:21:39.312Z,77.65
2023-02-16T16:24:11.735Z,77.28
2023-02-16T16:26:58.819Z,77.77
2023-02-16T16:29:34.223Z,77.96
2023-02-16T16:32:01.575Z,77.87
2023-02-16T16:34:39.900Z,77.97
2023-02-16T16:37:26.489Z,77.68
2023-02-16T16:40:22.014Z,77.77
2023-02-16T16:43:03.903Z,78.03
2023-02-16T16:45:39.964Z,78.29
2023-02-16T16:48:18.303Z,78.20
2023-02-16T16:50:46.685Z,78.56
2023-02-16T16:53:31.716Z,78.58
2023-02-16T16:55:59.223Z,78.74
2023-02-16T16:58:27.200Z,78.88
2023-02-16T17:00:53.897Z,79.52
2023-02-16T17:03:20.638Z,79.67
2023-02-16T17:05:47.471Z,79.81
2023-02-16T17:08:14.067Z,79.91
2023-02-16T17:10:41.615Z,80.25
2023-02-16T17:13:15.217Z,80.53
2023-02-16T17:15:51.588Z,80.77
2023-02-16T17:18:20.857Z,80.68
2023-02-16T17:20:48.093Z,80.51
2023-02-16T17:23:16.737Z,80.25
2023-02-16T17:25:44.138Z,80.06
2023-02-16T17:28:11.620Z,80.05
2023-02-16T17:30:38.274Z,80.08
2023-02-16T17:33:07.092Z,80.01
2023-02-16T17:35:36.318Z,79.78
2023-02-16T17:38:17.294Z,79.50
2023-02-16T17:40:47.435Z,79.54
2023-02-16T17:43:15.030Z,79.31
2023-02-16T17:45:42.457Z,79.11
2023-02-16T17:48:15.433Z,79.10
2023-02-16T17:50:42.683Z,79.23
2023-02-16T17:53:17.450Z,79.44
2023-02-16T17:55:44.960Z,79.33
2023-02-16T17:58:11.907Z,79.28
2023-02-16T18:00:39.338Z,79.18
2023-02-16T18:03:06.659Z,79.08
2023-02-16T18:05:34.243Z,78.54
2023-02-16T18:08:01.523Z,78.15
2023-02-16T18:10:42.996Z,78.07
2023-02-16T18:13:11.611Z,78.18
2023-02-16T18:15:40.554Z,77.73
2023-02-16T18:18:07.484Z,77.74
2023-02-16T18:20:34.482Z,77.75
2023-02-16T18:23:01.065Z,77.76
2023-02-16T18:25:27.755Z,77.89
2023-02-16T18:27:54.439Z,77.68
2023-02-16T18:30:21.289Z,77.21
2023-02-16T18:32:47.869Z,77.58
2023-02-16T18:35:15.221Z,77.58
2023-02-16T18:37:42.059Z,77.21
2023-02-16T18:40:10.983Z,77.12
2023-02-16T18:42:38.197Z,76.85
2023-02-16T18:45:06.001Z,77.00
2023-02-16T18:47:32.656Z,76.90
2023-02-16T18:49:59.382Z,77.00
2023-02-16T18:52:25.946Z,77.18
2023-02-16T18:54:52.598Z,76.85
2023-02-16T18:57:19.504Z,76.77
2023-02-16T18:59:46.077Z,76.75
2023-02-16T19:02:12.773Z,77.23
2023-02-16T19:04:39.779Z,77.31
2023-02-16T19:07:06.728Z,77.32
2023-02-16T19:09:33.558Z,77.56
2023-02-16T19:12:00.164Z,78.10
2023-02-16T19:14:26.829Z,78.10
2023-02-16T19:16:53.485Z,78.23
2023-02-16T19:19:20.379Z,78.62
2023-02-16T19:21:46.926Z,78.31
2023-02-16T19:24:13.815Z,78.36
2023-02-16T19:26:40.810Z,78.36
2023-02-16T19:29:07.404Z,78.48
2023-02-16T19:31:35.570Z,78.57
2023-02-16T19:34:02.508Z,79.17
2023-02-16T19:36:32.074Z,79.15
2023-02-16T19:38:58.907Z,79.19
2023-02-16T19:41:35.635Z,79.20
2023-02-16T19:44:02.836Z,79.43
2023-02-16T19:46:30.417Z,79.75
2023-02-16T19:48:57.705Z,79.75
2023-02-16T19:51:24.644Z,79.87
2023-02-16T19:53:51.700Z,79.84
2023-02-16T19:56:21.457Z,80.30
2023-02-16T19:58:49.054Z,80.37
2023-02-16T20:01:23.241Z,80.47
2023-02-16T20:03:50.898Z,81.17
2023-02-16T20:06:23.549Z,81.06
2023-02-16T20:08:51.862Z,81.48
2023-02-16T20:11:21.175Z,81.24
2023-02-16T20:13:48.420Z,80.99
2023-02-16T20:16:17.040Z,81.36
2023-02-16T20:18:44.808Z,81.09
2023-02-16T20:21:19.068Z,81.36
2023-02-16T20:23:46.074Z,81.13
2023-02-16T20:26:18.720Z,81.16
2023-02-16T20:28:46.132Z,81.26
2023-02-16T20:31:22.029Z,81.32
2023-02-16T20:33:49.587Z,81.48
2023-02-16T20:36:18.150Z,81.61
2023-02-16T20:38:44.799Z,81.13
2023-02-16T20:41:11.857Z,81.34
2023-02-16T20:43:39.243Z,80.99
2023-02-16T20:46:07.928Z,80.55
2023-02-16T20:48:35.406Z,80.35
2023-02-16T20:51:04.910Z,80.02
2023-02-16T20:53:32.584Z,80.28
2023-02-16T20:56:08.347Z,80.19
2023-02-16T20:58:36.952Z,79.78
2023-02-16T21:01:10.361Z,79.67
2023-02-16T21:03:36.967Z,79.89
2023-02-16T21:06:04.085Z,79.58
2023-02-16T21:08:30.869Z,79.32
2023-02-16T21:10:57.458Z,79.25
2023-02-16T21:13:24.046Z,79.43
2023-02-16T21:15:50.707Z,79.19
2023-02-16T21:18:17.277Z,79.28
2023-02-16T21:20:44.474Z,79.41
2023-02-16T21:23:11.087Z,79.96
2023-02-16T21:25:38.183Z,79.78
2023-02-16T21:28:04.902Z,79.67
2023-02-16T21:30:31.729Z,80.02
2023-02-16T21:32:58.374Z,80.20
2023-02-16T21:35:24.962Z,80.78
2023-02-16T21:37:51.593Z,81.40
2023-02-16T21:40:36.809Z,81.29
2023-02-16T21:43:03.508Z,81.92
2023-02-16T21:45:30.147Z,82.25
2023-02-16T21:48:15.384Z,82.22
2023-02-16T21:50:42.337Z,82.39
2023-02-16T21:53:09.533Z,82.88
2023-02-16T21:55:57.054Z,83.57
2023-02-16T21:58:26.842Z,83.66
2023-02-16T22:00:53.837Z,84.09
2023-02-16T22:03:20.759Z,84.24
2023-02-16T22:05:47.814Z,84.74
2023-02-16T22:08:14.824Z,85.30
2023-02-16T22:10:41.406Z,85.33
2023-02-16T22:13:08.515Z,85.31
2023-02-16T22:15:37.110Z,85.34
2023-02-16T22:18:07.129Z,85.68
2023-02-16T22:20:33.726Z,86.33
2023-02-16T22:23:00.332Z,86.70
2023-02-16T22:25:27.023Z,87.86
2023-02-16T22:27:53.677Z,86.74
2023-02-16T22:30:20.454Z,87.34
2023-02-16T22:32:49.410Z,89.19
2023-02-16T22:35:16.041Z,89.62
2023-02-16T22:37:42.662Z,89.46
2023-02-16T22:40:09.565Z,89.81
2023-02-16T22:42:36.376Z,90.09
2023-02-16T22:45:03.644Z,91.00
2023-02-16T22:47:31.292Z,91.35
2023-02-16T22:49:57.888Z,91.99
2023-02-16T22:52:24.756Z,91.54
2023-02-16T22:54:54.200Z,91.48
2023-02-16T22:57:20.800Z,91.71
2023-02-16T22:59:47.360Z,91.35
2023-02-16T23:02:14.126Z,91.43
2023-02-16T23:04:43.197Z,92.02
2023-02-16T23:07:10.000Z,91.59
2023-02-16T23:09:36.672Z,91.59
2023-02-16T23:12:03.641Z,92.00
2023-02-16T23:14:30.693Z,91.47
2023-02-16T23:16:57.453Z,91.12
2023-02-16T23:19:26.478Z,91.66
2023-02-16T23:21:53.962Z,91.90
2023-02-16T23:24:22.944Z,92.34
2023-02-16T23:26:49.980Z,91.96
2023-02-16T23:29:16.987Z,92.23
2023-02-16T23:31:46.735Z,91.19
2023-02-16T23:34:14.148Z,91.87
2023-02-16T23:36:40.840Z,91.85
2023-02-16T23:39:11.398Z,92.23
2023-02-16T23:41:38.493Z,92.02
2023-02-16T23:44:05.722Z,92.24
2023-02-16T23:46:32.808Z,91.67
2023-02-16T23:48:59.504Z,91.93
2023-02-16T23:51:26.589Z,91.41
2023-02-16T23:53:53.727Z,91.26
2023-02-16T23:56:22.842Z,91.95
2023-02-16T23:58:49.873Z,91.97
